createdAt,value
2019-05-09T00:00:14.181Z,8.43
2019-05-09T00:02:41.203Z,9.00
2019-05-09T00:05:08.041Z,9.07
2019-05-09T00:07:34.883Z,9.50
2019-05-09T00:10:03.921Z,10.23
2019-05-09T00:12:30.206Z,9.90
2019-05-09T00:14:57.049Z,9.73
2019-05-09T00:17:23.995Z,8.67
2019-05-09T00:19:50.831Z,9.10
2019-05-09T00:22:17.620Z,10.47
2019-05-09T00:24:44.803Z,9.30
2019-05-09T00:27:13.979Z,7.27
2019-05-09T00:29:40.300Z,9.33
2019-05-09T00:32:07.117Z,8.60
2019-05-09T00:34:33.931Z,8.43
2019-05-09T00:37:02.970Z,10.17
2019-05-09T00:39:29.225Z,7.90
2019-05-09T00:41:56.002Z,7.03
2019-05-09T00:44:23.311Z,7.57
2019-05-09T00:46:50.085Z,8.47
2019-05-09T00:49:16.829Z,7.53
2019-05-09T00:51:43.799Z,8.07
2019-05-09T00:54:10.716Z,7.17
2019-05-09T00:56:37.560Z,7.07
2019-05-09T00:59:04.550Z,8.10
2019-05-09T01:01:31.548Z,7.67
2019-05-09T01:03:58.293Z,6.53
2019-05-09T01:06:25.333Z,7.87
2019-05-09T01:08:53.725Z,7.90
2019-05-09T01:11:20.652Z,7.97
2019-05-09T01:13:47.439Z,6.83
2019-05-09T01:16:14.237Z,7.43
2019-05-09T01:18:43.581Z,6.87
2019-05-09T01:21:09.658Z,7.17
2019-05-09T01:23:36.510Z,7.13
2019-05-09T01:26:03.977Z,7.67
2019-05-09T01:28:31.115Z,6.30
2019-05-09T01:30:57.823Z,8.83
2019-05-09T01:33:24.595Z,8.43
2019-05-09T01:35:51.529Z,6.87
2019-05-09T01:38:18.267Z,6.93
2019-05-09T01:40:45.005Z,7.23
2019-05-09T01:43:13.887Z,7.43
2019-05-09T01:45:40.328Z,8.47
2019-05-09T01:48:07.175Z,8.40
2019-05-09T01:50:34.152Z,8.37
2019-05-09T01:53:00.946Z,8.30
2019-05-09T01:55:27.766Z,9.57
2019-05-09T01:57:54.641Z,7.93
2019-05-09T02:00:23.766Z,9.17
2019-05-09T02:02:49.962Z,7.67
2019-05-09T02:05:16.805Z,9.67
2019-05-09T02:07:43.908Z,10.20
2019-05-09T02:10:10.672Z,10.00
2019-05-09T02:12:37.530Z,8.67
2019-05-09T02:15:04.375Z,9.20
2019-05-09T02:17:33.350Z,9.60
2019-05-09T02:19:59.536Z,9.70
2019-05-09T02:22:26.333Z,9.90
2019-05-09T02:24:53.564Z,10.20
2019-05-09T02:27:20.530Z,10.53
2019-05-09T02:29:47.270Z,10.47
2019-05-09T02:32:14.413Z,10.63
2019-05-09T02:34:44.114Z,9.90
2019-05-09T02:37:10.047Z,8.60
2019-05-09T02:39:39.331Z,9.43
2019-05-09T02:42:10.812Z,10.00
2019-05-09T02:44:33.750Z,9.93
2019-05-09T02:47:00.700Z,9.60
2019-05-09T02:49:28.765Z,9.87
2019-05-09T02:51:58.865Z,9.10
2019-05-09T02:54:24.389Z,10.40
2019-05-09T02:56:51.436Z,9.40
2019-05-09T02:59:18.910Z,11.37
2019-05-09T03:01:49.254Z,12.03
2019-05-09T03:04:14.522Z,10.87
2019-05-09T03:06:41.366Z,11.40
2019-05-09T03:09:08.894Z,11.40
2019-05-09T03:11:38.613Z,9.73
2019-05-09T03:14:04.501Z,11.73
2019-05-09T03:16:31.294Z,11.50
2019-05-09T03:18:58.549Z,11.00
2019-05-09T03:21:25.363Z,11.57
2019-05-09T03:23:52.124Z,10.80
2019-05-09T03:26:19.518Z,11.63
2019-05-09T03:28:48.983Z,11.23
2019-05-09T03:31:14.907Z,10.97
2019-05-09T03:33:41.700Z,9.50
2019-05-09T03:36:08.491Z,10.40
2019-05-09T03:38:37.602Z,9.90
2019-05-09T03:41:03.755Z,11.60
2019-05-09T03:43:30.547Z,10.87
2019-05-09T03:45:58.490Z,10.80
2019-05-09T03:48:25.489Z,10.67
2019-05-09T03:50:52.300Z,11.40
2019-05-09T03:53:19.243Z,10.63
2019-05-09T03:55:47.476Z,11.80
2019-05-09T03:58:14.465Z,11.40
2019-05-09T04:00:41.208Z,11.83
2019-05-09T04:03:08.267Z,12.37
2019-05-09T04:05:34.975Z,12.33
2019-05-09T04:08:01.757Z,12.07
2019-05-09T04:10:28.697Z,12.43
2019-05-09T04:12:58.210Z,12.30
2019-05-09T04:15:24.128Z,13.43
2019-05-09T04:17:50.933Z,14.33
2019-05-09T04:20:17.778Z,13.27
2019-05-09T04:22:44.618Z,13.87
2019-05-09T04:25:11.564Z,15.17
2019-05-09T04:27:38.306Z,11.53
2019-05-09T04:30:08.805Z,13.13
2019-05-09T04:32:33.774Z,12.53
2019-05-09T04:35:00.573Z,12.40
2019-05-09T04:37:28.140Z,9.63
2019-05-09T04:40:01.578Z,8.23
2019-05-09T04:42:24.471Z,7.90
2019-05-09T04:44:57.670Z,7.13
2019-05-09T04:47:19.691Z,6.77
2019-05-09T04:49:47.978Z,6.73
2019-05-09T04:52:14.763Z,5.73
2019-05-09T04:54:41.657Z,6.53
2019-05-09T04:57:08.422Z,5.93
2019-05-09T04:59:37.226Z,5.00
2019-05-09T05:02:03.688Z,5.93
2019-05-09T05:04:30.652Z,5.63
2019-05-09T05:06:58.513Z,5.13
2019-05-09T05:09:27.622Z,5.43
2019-05-09T05:11:54.059Z,5.03
2019-05-09T05:14:20.887Z,5.50
2019-05-09T05:16:53.352Z,5.20
2019-05-09T05:19:17.678Z,5.83
2019-05-09T05:21:44.659Z,6.23
2019-05-09T05:24:12.047Z,6.67
2019-05-09T05:26:38.882Z,5.93
2019-05-09T05:29:05.626Z,5.00
2019-05-09T05:31:32.477Z,6.23
2019-05-09T05:33:59.417Z,6.13
2019-05-09T05:36:27.947Z,5.80
2019-05-09T05:38:54.627Z,5.87
2019-05-09T05:41:21.367Z,6.40
2019-05-09T05:43:48.213Z,7.60
2019-05-09T05:46:15.424Z,7.40
2019-05-09T05:48:42.206Z,8.40
2019-05-09T05:51:09.043Z,7.23
2019-05-09T05:53:37.931Z,7.10
2019-05-09T05:56:04.485Z,7.77
2019-05-09T05:58:31.309Z,8.13
2019-05-09T06:00:58.919Z,8.77
2019-05-09T06:03:28.182Z,8.10
2019-05-09T06:05:54.607Z,7.67
2019-05-09T06:08:21.452Z,7.57
2019-05-09T06:10:48.405Z,7.37
2019-05-09T06:13:15.227Z,7.93
2019-05-09T06:15:42.068Z,8.17
2019-05-09T06:18:08.812Z,7.80
2019-05-09T06:20:35.659Z,7.50
2019-05-09T06:23:02.495Z,7.53
2019-05-09T06:25:30.387Z,7.67
2019-05-09T06:27:58.393Z,6.73
2019-05-09T06:30:25.479Z,7.50
2019-05-09T06:32:52.324Z,7.23
2019-05-09T06:35:19.159Z,7.13
2019-05-09T06:37:47.792Z,7.27
2019-05-09T06:40:14.554Z,7.50
2019-05-09T06:42:41.327Z,7.93
2019-05-09T06:45:08.217Z,8.20
2019-05-09T06:47:35.014Z,7.20
2019-05-09T06:50:01.847Z,7.37
2019-05-09T06:52:28.749Z,7.47
2019-05-09T06:54:58.049Z,7.20
2019-05-09T06:57:23.909Z,7.13
2019-05-09T06:59:50.755Z,7.33
2019-05-09T07:02:17.727Z,7.13
2019-05-09T07:04:44.536Z,7.67
2019-05-09T07:07:11.340Z,7.20
2019-05-09T07:09:38.498Z,7.43
2019-05-09T07:12:07.665Z,7.57
2019-05-09T07:14:37.980Z,7.10
2019-05-09T07:17:02.226Z,8.17
2019-05-09T07:19:29.063Z,8.67
2019-05-09T07:21:57.980Z,9.03
2019-05-09T07:24:24.492Z,11.13
2019-05-09T07:26:52.557Z,7.90
2019-05-09T07:29:19.407Z,9.10
2019-05-09T07:31:47.994Z,9.13
2019-05-09T07:34:14.634Z,8.10
2019-05-09T07:36:41.461Z,8.97
2019-05-09T07:39:09.013Z,9.07
2019-05-09T07:41:38.229Z,10.10
2019-05-09T07:44:04.550Z,9.87
2019-05-09T07:46:31.389Z,9.37
2019-05-09T07:48:58.254Z,7.63
2019-05-09T07:51:27.422Z,8.40
2019-05-09T07:53:53.759Z,8.77
2019-05-09T07:56:20.608Z,9.30
2019-05-09T07:58:47.832Z,8.60
2019-05-09T08:01:14.769Z,8.43
2019-05-09T08:03:41.538Z,9.37
2019-05-09T08:06:08.965Z,8.93
2019-05-09T08:08:38.215Z,8.60
2019-05-09T08:11:04.415Z,8.60
2019-05-09T08:13:31.256Z,7.97
2019-05-09T08:15:58.632Z,8.03
2019-05-09T08:18:28.026Z,9.40
2019-05-09T08:20:54.035Z,8.47
2019-05-09T08:23:20.880Z,7.67
2019-05-09T08:25:48.529Z,7.83
2019-05-09T08:28:17.709Z,8.27
2019-05-09T08:30:44.169Z,8.27
2019-05-09T08:33:11.009Z,8.53
2019-05-09T08:35:38.426Z,9.27
2019-05-09T08:38:05.378Z,8.07
2019-05-09T08:40:32.159Z,7.07
2019-05-09T08:42:59.502Z,8.87
2019-05-09T08:45:30.846Z,9.17
2019-05-09T08:47:54.825Z,8.73
2019-05-09T08:50:21.664Z,9.43
2019-05-09T08:52:48.408Z,9.43
2019-05-09T08:55:17.355Z,9.03
2019-05-09T08:57:44.143Z,9.17
2019-05-09T09:00:10.934Z,8.87
2019-05-09T09:02:37.843Z,9.13
2019-05-09T09:05:04.762Z,8.37
2019-05-09T09:07:31.483Z,9.10
2019-05-09T09:09:58.244Z,9.07
2019-05-09T09:12:31.334Z,9.27
2019-05-09T09:14:53.484Z,8.83
2019-05-09T09:17:20.303Z,9.07
2019-05-09T09:19:47.817Z,9.53
2019-05-09T09:22:14.965Z,10.67
2019-05-09T09:24:41.749Z,11.80
2019-05-09T09:27:08.796Z,9.30
2019-05-09T09:29:38.075Z,12.00
2019-05-09T09:32:04.024Z,11.27
2019-05-09T09:34:31.067Z,12.47
2019-05-09T09:37:04.176Z,12.73
2019-05-09T09:39:27.525Z,11.77
2019-05-09T09:41:54.454Z,12.63
2019-05-09T09:44:22.427Z,11.47
2019-05-09T09:46:49.527Z,10.33
2019-05-09T09:49:18.087Z,10.53
2019-05-09T09:51:44.893Z,4.87
2019-05-09T09:54:11.735Z,6.37
2019-05-09T09:56:39.193Z,4.97
2019-05-09T09:59:08.036Z,5.27
2019-05-09T10:01:34.407Z,5.27
2019-05-09T10:04:15.536Z,2.37
2019-05-09T10:06:29.742Z,3.27
2019-05-09T10:08:57.967Z,2.87
2019-05-09T10:11:25.155Z,3.23
2019-05-09T10:13:52.148Z,2.57
2019-05-09T10:16:29.093Z,3.03
2019-05-09T10:18:47.323Z,2.53
2019-05-09T10:21:14.163Z,2.57
2019-05-09T10:23:41.125Z,2.40
2019-05-09T10:26:08.634Z,2.20
2019-05-09T10:28:37.853Z,2.50
2019-05-09T10:31:03.897Z,2.60
2019-05-09T10:33:30.891Z,2.40
2019-05-09T10:36:04.524Z,2.20
2019-05-09T10:38:27.966Z,2.90
2019-05-09T10:40:54.934Z,2.97
2019-05-09T10:43:34.492Z,2.50
2019-05-09T10:45:50.328Z,2.00
2019-05-09T10:48:23.593Z,1.97
2019-05-09T10:50:47.859Z,2.20
2019-05-09T10:53:13.959Z,2.60
2019-05-09T10:55:40.778Z,2.70
2019-05-09T10:58:08.301Z,2.67
2019-05-09T11:00:35.076Z,2.57
2019-05-09T11:03:01.866Z,2.50
2019-05-09T11:05:28.679Z,2.77
2019-05-09T11:07:55.519Z,2.20
2019-05-09T11:10:27.721Z,2.03
2019-05-09T11:12:50.845Z,2.50
2019-05-09T11:15:17.812Z,2.50
2019-05-09T11:17:44.640Z,2.73
2019-05-09T11:20:11.372Z,2.47
2019-05-09T11:22:38.730Z,2.70
2019-05-09T11:25:05.763Z,2.87
2019-05-09T11:27:32.606Z,3.20
2019-05-09T11:29:59.450Z,2.73
2019-05-09T11:32:27.708Z,3.20
2019-05-09T11:34:54.822Z,2.97
2019-05-09T11:37:22.260Z,2.83
2019-05-09T11:39:49.171Z,2.73
2019-05-09T11:42:17.818Z,2.73
2019-05-09T11:44:44.287Z,2.47
2019-05-09T11:47:28.606Z,2.57
2019-05-09T11:49:39.711Z,3.03
2019-05-09T11:52:08.395Z,2.57
2019-05-09T11:54:35.237Z,2.60
2019-05-09T11:57:02.487Z,2.40
2019-05-09T11:59:29.239Z,2.27
2019-05-09T12:01:58.587Z,2.13
2019-05-09T12:04:25.062Z,2.47
2019-05-09T12:06:52.630Z,2.03
2019-05-09T12:09:19.465Z,2.50
2019-05-09T12:11:48.326Z,2.30
2019-05-09T12:14:14.696Z,2.33
2019-05-09T12:16:41.942Z,2.40
2019-05-09T12:19:08.685Z,2.20
2019-05-09T12:21:44.485Z,2.27
2019-05-09T12:24:03.993Z,2.40
2019-05-09T12:26:30.739Z,2.30
2019-05-09T12:28:57.932Z,2.83
2019-05-09T12:31:24.946Z,2.20
2019-05-09T12:33:51.775Z,2.63
2019-05-09T12:36:19.353Z,3.27
2019-05-09T12:38:49.685Z,3.73
2019-05-09T12:41:15.915Z,2.87
2019-05-09T12:43:42.653Z,3.30
2019-05-09T12:46:10.452Z,2.80
2019-05-09T12:48:37.228Z,2.33
2019-05-09T12:51:03.976Z,3.00
2019-05-09T12:53:30.807Z,2.30
2019-05-09T12:55:57.798Z,2.63
2019-05-09T12:58:24.670Z,2.70
2019-05-09T13:00:52.008Z,2.43
2019-05-09T13:03:19.092Z,2.60
2019-05-09T13:05:47.098Z,2.43
2019-05-09T13:08:14.007Z,2.57
2019-05-09T13:10:40.849Z,2.47
2019-05-09T13:13:08.752Z,2.53
2019-05-09T13:15:38.269Z,2.53
2019-05-09T13:18:04.248Z,2.87
2019-05-09T13:20:31.092Z,3.47
2019-05-09T13:22:58.856Z,3.33
2019-05-09T13:25:25.692Z,3.37
2019-05-09T13:27:53.185Z,2.73
2019-05-09T13:30:20.402Z,2.63
2019-05-09T13:32:48.382Z,2.60
2019-05-09T13:35:15.342Z,2.57
2019-05-09T13:37:42.253Z,3.10
2019-05-09T13:40:08.998Z,2.80
2019-05-09T13:42:39.128Z,2.80
2019-05-09T13:45:04.310Z,2.83
2019-05-09T13:47:31.152Z,2.10
2019-05-09T13:49:59.092Z,2.43
2019-05-09T13:52:27.426Z,2.50
2019-05-09T13:54:54.451Z,2.60
2019-05-09T13:57:21.283Z,2.80
2019-05-09T13:59:48.539Z,2.67
2019-05-09T14:02:18.522Z,2.63
2019-05-09T14:04:44.267Z,2.73
2019-05-09T14:07:11.107Z,2.53
2019-05-09T14:09:38.698Z,2.37
2019-05-09T14:12:05.574Z,3.30
2019-05-09T14:14:32.450Z,2.47
2019-05-09T14:16:59.483Z,2.40
2019-05-09T14:19:39.857Z,2.70
2019-05-09T14:21:54.730Z,2.30
2019-05-09T14:24:22.025Z,3.77
2019-05-09T14:26:48.819Z,2.60
2019-05-09T14:29:20.083Z,2.20
2019-05-09T14:31:44.133Z,2.63
2019-05-09T14:34:10.980Z,2.27
2019-05-09T14:36:39.254Z,2.37
2019-05-09T14:39:06.300Z,2.90
2019-05-09T14:41:33.039Z,2.53
2019-05-09T14:44:00.048Z,2.43
2019-05-09T14:46:28.446Z,2.47
2019-05-09T14:48:55.252Z,2.80
2019-05-09T14:51:22.154Z,2.80
2019-05-09T14:53:48.894Z,2.50
2019-05-09T14:56:15.622Z,2.60
2019-05-09T14:58:42.477Z,2.97
2019-05-09T15:01:09.305Z,2.70
2019-05-09T15:03:38.632Z,2.87
2019-05-09T15:06:04.526Z,3.00
2019-05-09T15:08:31.378Z,4.37
2019-05-09T15:10:58.374Z,5.00
2019-05-09T15:13:25.315Z,4.70
2019-05-09T15:15:52.050Z,6.33
2019-05-09T15:18:18.891Z,4.60
2019-05-09T15:20:47.916Z,4.77
2019-05-09T15:23:14.601Z,4.00
2019-05-09T15:25:41.415Z,3.50
2019-05-09T15:28:08.415Z,4.17
2019-05-09T15:30:38.340Z,4.27
2019-05-09T15:33:03.880Z,4.40
2019-05-09T15:35:30.748Z,4.43
2019-05-09T15:37:59.079Z,3.70
2019-05-09T15:40:28.206Z,5.17
2019-05-09T15:42:54.528Z,4.70
2019-05-09T15:45:22.337Z,4.30
2019-05-09T15:47:49.133Z,4.27
2019-05-09T15:50:22.547Z,4.97
2019-05-09T15:52:44.755Z,4.33
2019-05-09T15:55:11.601Z,4.23
2019-05-09T15:57:38.441Z,5.27
2019-05-09T16:00:08.069Z,4.30
2019-05-09T16:02:34.095Z,4.20
2019-05-09T16:05:01.014Z,4.10
2019-05-09T16:07:28.530Z,4.87
2019-05-09T16:09:55.313Z,4.60
2019-05-09T16:12:22.157Z,6.33
2019-05-09T16:14:49.001Z,6.57
2019-05-09T16:17:18.835Z,5.60
2019-05-09T16:19:44.317Z,4.73
2019-05-09T16:22:11.362Z,5.33
2019-05-09T16:24:38.378Z,4.70
2019-05-09T16:27:08.287Z,4.17
2019-05-09T16:29:34.036Z,4.93
2019-05-09T16:32:00.884Z,4.47
2019-05-09T16:34:28.260Z,4.77
2019-05-09T16:36:55.079Z,3.50
2019-05-09T16:39:21.921Z,4.53
2019-05-09T16:41:48.976Z,4.57
2019-05-09T16:44:18.245Z,4.50
2019-05-09T16:46:44.497Z,4.17
2019-05-09T16:49:11.953Z,5.23
2019-05-09T16:51:40.572Z,4.63
2019-05-09T16:54:07.587Z,4.10
2019-05-09T16:56:34.736Z,5.00
2019-05-09T16:59:01.729Z,5.30
2019-05-09T17:01:28.575Z,4.90
2019-05-09T17:03:57.350Z,4.47
2019-05-09T17:06:24.147Z,4.83
2019-05-09T17:08:51.189Z,4.50
2019-05-09T17:11:19.147Z,4.90
2019-05-09T17:13:47.145Z,4.70
2019-05-09T17:16:14.942Z,5.10
2019-05-09T17:18:41.911Z,4.83
2019-05-09T17:21:18.314Z,4.33
2019-05-09T17:23:38.479Z,4.03
2019-05-09T17:26:05.376Z,4.90
2019-05-09T17:28:32.166Z,4.33
2019-05-09T17:30:59.008Z,4.50
2019-05-09T17:33:28.418Z,4.00
2019-05-09T17:35:54.355Z,4.50
2019-05-09T17:38:21.169Z,4.87
2019-05-09T17:40:48.628Z,4.93
2019-05-09T17:43:18.074Z,5.57
2019-05-09T17:45:44.153Z,5.60
2019-05-09T17:48:10.994Z,5.00
2019-05-09T17:50:38.512Z,4.17
2019-05-09T17:53:05.598Z,4.80
2019-05-09T17:55:32.446Z,5.13
2019-05-09T17:57:59.184Z,5.90
2019-05-09T18:00:27.976Z,5.07
2019-05-09T18:02:54.527Z,6.03
2019-05-09T18:05:21.347Z,5.20
2019-05-09T18:07:48.657Z,5.27
2019-05-09T18:10:18.209Z,5.40
2019-05-09T18:12:44.249Z,4.43
2019-05-09T18:15:11.089Z,5.67
2019-05-09T18:17:38.353Z,6.00
2019-05-09T18:20:05.394Z,5.23
2019-05-09T18:22:34.514Z,5.10
2019-05-09T18:25:02.016Z,7.13
2019-05-09T18:27:29.063Z,5.50
2019-05-09T18:29:58.113Z,6.10
2019-05-09T18:32:24.382Z,6.23
2019-05-09T18:34:52.595Z,5.80
2019-05-09T18:37:19.506Z,6.03
2019-05-09T18:39:48.331Z,6.07
2019-05-09T18:42:17.905Z,5.63
2019-05-09T18:44:44.742Z,5.37
2019-05-09T18:47:11.580Z,6.13
2019-05-09T18:49:38.430Z,5.30
2019-05-09T18:52:05.263Z,5.60
2019-05-09T18:54:32.110Z,7.03
2019-05-09T18:56:58.846Z,6.77
2019-05-09T18:59:25.585Z,7.00
2019-05-09T19:01:52.490Z,6.43
2019-05-09T19:04:19.779Z,6.80
2019-05-09T19:06:46.640Z,7.70
2019-05-09T19:09:13.983Z,7.70
2019-05-09T19:11:40.897Z,8.30
2019-05-09T19:14:07.764Z,6.43
2019-05-09T19:16:34.603Z,10.03
2019-05-09T19:19:01.445Z,8.23
2019-05-09T19:21:28.289Z,8.37
2019-05-09T19:23:55.642Z,10.80
2019-05-09T19:26:22.441Z,10.90
2019-05-09T19:28:49.231Z,10.60
2019-05-09T19:31:16.072Z,10.97
2019-05-09T19:33:42.905Z,13.20
2019-05-09T19:36:09.757Z,12.23
2019-05-09T19:38:36.594Z,14.57
2019-05-09T19:41:03.453Z,16.60
2019-05-09T19:43:30.291Z,13.00
2019-05-09T19:45:57.173Z,13.23
2019-05-09T19:48:23.986Z,14.10
2019-05-09T19:50:50.819Z,11.87
2019-05-09T19:53:17.651Z,13.20
2019-05-09T19:55:44.779Z,12.00
2019-05-09T19:58:11.720Z,12.33
2019-05-09T20:00:38.576Z,12.17
2019-05-09T20:03:05.422Z,11.73
2019-05-09T20:05:32.156Z,11.57
2019-05-09T20:07:59.103Z,11.03
2019-05-09T20:10:25.973Z,12.07
2019-05-09T20:12:52.885Z,15.23
2019-05-09T20:15:21.076Z,11.90
2019-05-09T20:17:49.216Z,14.27
2019-05-09T20:20:16.199Z,10.47
2019-05-09T20:22:52.355Z,14.07
2019-05-09T20:25:11.603Z,12.13
2019-05-09T20:27:38.443Z,10.80
2019-05-09T20:30:05.599Z,11.60
2019-05-09T20:32:32.351Z,12.73
2019-05-09T20:34:59.393Z,11.63
2019-05-09T20:37:26.217Z,11.50
2019-05-09T20:39:53.057Z,11.50
2019-05-09T20:42:19.899Z,12.10
2019-05-09T20:44:46.737Z,10.30
2019-05-09T20:47:13.581Z,12.13
2019-05-09T20:49:40.453Z,11.33
2019-05-09T20:52:07.969Z,11.87
2019-05-09T20:54:34.721Z,12.07
2019-05-09T20:57:01.458Z,11.47
2019-05-09T20:59:28.254Z,12.50
2019-05-09T21:01:55.041Z,10.63
2019-05-09T21:04:21.887Z,10.77
2019-05-09T21:06:48.779Z,11.77
2019-05-09T21:09:15.589Z,11.60
2019-05-09T21:11:42.422Z,11.03
2019-05-09T21:14:09.254Z,11.77
2019-05-09T21:16:36.099Z,11.40
2019-05-09T21:19:02.955Z,13.87
2019-05-09T21:21:29.977Z,13.40
2019-05-09T21:23:56.819Z,13.40
2019-05-09T21:26:23.560Z,15.07
2019-05-09T21:28:50.400Z,13.87
2019-05-09T21:31:17.346Z,11.13
2019-05-09T21:33:44.193Z,14.03
2019-05-09T21:36:11.036Z,15.43
2019-05-09T21:38:37.869Z,14.73
2019-05-09T21:41:04.714Z,13.87
2019-05-09T21:43:31.556Z,14.43
2019-05-09T21:45:58.404Z,13.07
2019-05-09T21:48:25.460Z,15.13
2019-05-09T21:50:52.249Z,15.50
2019-05-09T21:53:19.129Z,16.40
2019-05-09T21:55:45.973Z,15.63
2019-05-09T21:58:12.808Z,18.80
2019-05-09T22:00:39.755Z,18.63
2019-05-09T22:03:06.605Z,17.10
2019-05-09T22:05:33.389Z,16.07
2019-05-09T22:08:00.112Z,16.33
2019-05-09T22:10:26.919Z,17.10
2019-05-09T22:12:53.860Z,16.73
2019-05-09T22:15:20.600Z,16.40
2019-05-09T22:17:47.460Z,14.23
2019-05-09T22:20:14.280Z,15.53
2019-05-09T22:22:41.225Z,16.50
2019-05-09T22:25:08.065Z,13.33
2019-05-09T22:27:34.922Z,14.93
2019-05-09T22:30:01.751Z,13.43
2019-05-09T22:32:28.594Z,14.50
2019-05-09T22:34:55.746Z,15.77
2019-05-09T22:37:22.611Z,15.87
2019-05-09T22:39:49.424Z,16.73
2019-05-09T22:42:16.216Z,17.30
2019-05-09T22:44:43.004Z,17.97
2019-05-09T22:47:09.849Z,16.43
2019-05-09T22:49:36.693Z,17.30
2019-05-09T22:52:03.428Z,15.47
2019-05-09T22:54:30.269Z,15.53
2019-05-09T22:56:57.110Z,16.53
2019-05-09T22:59:23.952Z,14.37
2019-05-09T23:01:50.792Z,13.10
2019-05-09T23:04:17.634Z,14.10
2019-05-09T23:06:44.380Z,14.20
2019-05-09T23:09:11.114Z,15.10
2019-05-09T23:11:37.972Z,14.83
2019-05-09T23:14:04.801Z,14.53
2019-05-09T23:16:31.707Z,13.47
2019-05-09T23:18:58.920Z,12.33
2019-05-09T23:21:25.739Z,13.43
2019-05-09T23:23:52.579Z,14.13
2019-05-09T23:26:19.388Z,11.60
2019-05-09T23:28:46.157Z,13.17
2019-05-09T23:31:13.011Z,11.93
2019-05-09T23:33:40.198Z,13.17
2019-05-09T23:36:06.991Z,10.47
2019-05-09T23:38:33.846Z,10.77
2019-05-09T23:41:00.678Z,11.67
2019-05-09T23:43:27.615Z,11.13
2019-05-09T23:45:54.457Z,12.13
2019-05-09T23:48:21.875Z,11.03
2019-05-09T23:50:48.727Z,10.67
2019-05-09T23:53:15.599Z,10.47
2019-05-09T23:55:42.392Z,9.03
2019-05-09T23:58:09.176Z,10.27
